sensor_id;sensor_type;location;lat;lon;timestamp;temperature;humidity
36322;DHT22;23564;48.290;11.460;2023-12-22T00:01:39;3.60;56.00
36322;DHT22;23564;48.290;11.460;2023-12-22T00:04:04;3.10;74.80
36322;DHT22;23564;48.290;11.460;2023-12-22T00:06:32;2.70;86.80
36322;DHT22;23564;48.290;11.460;2023-12-22T00:08:58;2.60;92.90
36322;DHT22;23564;48.290;11.460;2023-12-22T00:11:23;2.40;93.20
36322;DHT22;23564;48.290;11.460;2023-12-22T00:13:49;2.20;93.80
36322;DHT22;23564;48.290;11.460;2023-12-22T00:16:14;2.10;96.00
36322;DHT22;23564;48.290;11.460;2023-12-22T00:18:40;2.10;98.70
36322;DHT22;23564;48.290;11.460;2023-12-22T00:21:12;2.20;99.60
36322;DHT22;23564;48.290;11.460;2023-12-22T00:23:38;2.30;99.90
36322;DHT22;23564;48.290;11.460;2023-12-22T00:26:05;2.30;99.90
36322;DHT22;23564;48.290;11.460;2023-12-22T00:28:30;2.30;99.90
36322;DHT22;23564;48.290;11.460;2023-12-22T00:30:59;2.40;99.90
36322;DHT22;23564;48.290;11.460;2023-12-22T00:33:25;2.40;99.90
36322;DHT22;23564;48.290;11.460;2023-12-22T00:35:51;2.40;99.90
36322;DHT22;23564;48.290;11.460;2023-12-22T00:38:17;2.50;99.90
36322;DHT22;23564;48.290;11.460;2023-12-22T00:40:42;2.50;99.90
36322;DHT22;23564;48.290;11.460;2023-12-22T00:43:08;2.50;99.60
36322;DHT22;23564;48.290;11.460;2023-12-22T00:45:33;2.60;99.70
36322;DHT22;23564;48.290;11.460;2023-12-22T00:47:59;2.60;99.70
36322;DHT22;23564;48.290;11.460;2023-12-22T00:50:24;2.70;99.60
36322;DHT22;23564;48.290;11.460;2023-12-22T00:52:50;2.80;99.70
36322;DHT22;23564;48.290;11.460;2023-12-22T00:55:15;2.80;99.90
36322;DHT22;23564;48.290;11.460;2023-12-22T00:57:41;2.90;99.90
36322;DHT22;23564;48.290;11.460;2023-12-22T01:00:08;2.90;99.70
36322;DHT22;23564;48.290;11.460;2023-12-22T01:02:38;3.00;98.90
36322;DHT22;23564;48.290;11.460;2023-12-22T01:05:04;3.00;98.30
36322;DHT22;23564;48.290;11.460;2023-12-22T01:07:29;3.00;97.40
36322;DHT22;23564;48.290;11.460;2023-12-22T01:09:55;3.00;97.40
36322;DHT22;23564;48.290;11.460;2023-12-22T01:12:21;3.00;97.00
36322;DHT22;23564;48.290;11.460;2023-12-22T01:14:47;3.00;96.90
36322;DHT22;23564;48.290;11.460;2023-12-22T01:17:14;3.00;96.80
36322;DHT22;23564;48.290;11.460;2023-12-22T01:19:40;3.00;95.10
36322;DHT22;23564;48.290;11.460;2023-12-22T01:22:05;3.10;94.90
36322;DHT22;23564;48.290;11.460;2023-12-22T01:24:31;3.10;93.40
36322;DHT22;23564;48.290;11.460;2023-12-22T01:26:56;3.10;93.60
36322;DHT22;23564;48.290;11.460;2023-12-22T01:29:22;3.10;94.20
36322;DHT22;23564;48.290;11.460;2023-12-22T01:31:47;3.00;93.90
36322;DHT22;23564;48.290;11.460;2023-12-22T01:34:13;3.00;94.80
36322;DHT22;23564;48.290;11.460;2023-12-22T01:36:38;3.00;96.60
36322;DHT22;23564;48.290;11.460;2023-12-22T01:39:04;3.10;97.20
36322;DHT22;23564;48.290;11.460;2023-12-22T01:41:30;3.10;97.40
36322;DHT22;23564;48.290;11.460;2023-12-22T01:43:55;3.00;96.00
36322;DHT22;23564;48.290;11.460;2023-12-22T01:46:21;3.00;96.00
36322;DHT22;23564;48.290;11.460;2023-12-22T01:48:47;3.00;96.50
36322;DHT22;23564;48.290;11.460;2023-12-22T01:51:12;3.00;96.90
36322;DHT22;23564;48.290;11.460;2023-12-22T01:53:38;3.00;97.50
36322;DHT22;23564;48.290;11.460;2023-12-22T01:56:04;3.00;97.50
36322;DHT22;23564;48.290;11.460;2023-12-22T01:58:33;3.00;97.20
36322;DHT22;23564;48.290;11.460;2023-12-22T02:00:59;3.00;97.30
36322;DHT22;23564;48.290;11.460;2023-12-22T02:03:26;2.90;96.80
36322;DHT22;23564;48.290;11.460;2023-12-22T02:05:52;3.00;97.10
36322;DHT22;23564;48.290;11.460;2023-12-22T02:08:18;3.00;96.70
36322;DHT22;23564;48.290;11.460;2023-12-22T02:10:44;3.00;97.40
36322;DHT22;23564;48.290;11.460;2023-12-22T02:13:11;3.00;97.60
36322;DHT22;23564;48.290;11.460;2023-12-22T02:15:37;3.00;97.40
36322;DHT22;23564;48.290;11.460;2023-12-22T02:18:21;2.90;96.90
36322;DHT22;23564;48.290;11.460;2023-12-22T02:20:47;2.90;96.30
36322;DHT22;23564;48.290;11.460;2023-12-22T02:23:13;2.80;95.20
36322;DHT22;23564;48.290;11.460;2023-12-22T02:25:39;2.70;93.40
36322;DHT22;23564;48.290;11.460;2023-12-22T02:28:09;2.60;93.30
36322;DHT22;23564;48.290;11.460;2023-12-22T02:30:56;2.50;94.70
36322;DHT22;23564;48.290;11.460;2023-12-22T02:33:23;2.50;96.00
36322;DHT22;23564;48.290;11.460;2023-12-22T02:35:50;2.50;96.60
36322;DHT22;23564;48.290;11.460;2023-12-22T02:38:16;2.50;97.90
36322;DHT22;23564;48.290;11.460;2023-12-22T02:40:43;2.50;98.30
36322;DHT22;23564;48.290;11.460;2023-12-22T02:43:09;2.50;98.10
36322;DHT22;23564;48.290;11.460;2023-12-22T02:45:35;2.50;97.70
36322;DHT22;23564;48.290;11.460;2023-12-22T02:48:01;2.50;98.00
36322;DHT22;23564;48.290;11.460;2023-12-22T02:50:26;2.60;98.80
36322;DHT22;23564;48.290;11.460;2023-12-22T02:52:52;2.60;98.50
36322;DHT22;23564;48.290;11.460;2023-12-22T02:55:17;2.60;98.50
36322;DHT22;23564;48.290;11.460;2023-12-22T02:57:43;2.60;98.10
36322;DHT22;23564;48.290;11.460;2023-12-22T03:00:09;2.60;98.70
36322;DHT22;23564;48.290;11.460;2023-12-22T03:02:35;2.70;98.30
36322;DHT22;23564;48.290;11.460;2023-12-22T03:05:00;2.70;98.80
36322;DHT22;23564;48.290;11.460;2023-12-22T03:07:26;2.70;98.40
36322;DHT22;23564;48.290;11.460;2023-12-22T03:09:51;2.70;98.20
36322;DHT22;23564;48.290;11.460;2023-12-22T03:12:17;2.70;98.30
36322;DHT22;23564;48.290;11.460;2023-12-22T03:14:42;2.70;98.10
36322;DHT22;23564;48.290;11.460;2023-12-22T03:17:08;2.70;97.90
36322;DHT22;23564;48.290;11.460;2023-12-22T03:19:35;2.80;98.00
36322;DHT22;23564;48.290;11.460;2023-12-22T03:22:00;2.80;97.90
36322;DHT22;23564;48.290;11.460;2023-12-22T03:24:26;2.80;97.70
36322;DHT22;23564;48.290;11.460;2023-12-22T03:26:53;2.90;97.60
36322;DHT22;23564;48.290;11.460;2023-12-22T03:29:19;2.90;97.00
36322;DHT22;23564;48.290;11.460;2023-12-22T03:31:45;2.80;96.20
36322;DHT22;23564;48.290;11.460;2023-12-22T03:34:11;2.80;95.40
36322;DHT22;23564;48.290;11.460;2023-12-22T03:36:37;2.80;96.30
36322;DHT22;23564;48.290;11.460;2023-12-22T03:39:03;2.80;96.60
36322;DHT22;23564;48.290;11.460;2023-12-22T03:41:29;2.90;97.20
36322;DHT22;23564;48.290;11.460;2023-12-22T03:43:55;2.90;98.00
36322;DHT22;23564;48.290;11.460;2023-12-22T03:46:21;2.90;98.90
36322;DHT22;23564;48.290;11.460;2023-12-22T03:48:47;2.90;98.90
36322;DHT22;23564;48.290;11.460;2023-12-22T03:51:12;3.00;99.50
36322;DHT22;23564;48.290;11.460;2023-12-22T03:53:40;3.10;99.50
36322;DHT22;23564;48.290;11.460;2023-12-22T03:56:07;3.10;99.40
36322;DHT22;23564;48.290;11.460;2023-12-22T03:58:33;3.10;99.80
36322;DHT22;23564;48.290;11.460;2023-12-22T04:00:58;3.10;99.90
36322;DHT22;23564;48.290;11.460;2023-12-22T04:03:24;3.10;99.40
36322;DHT22;23564;48.290;11.460;2023-12-22T04:05:49;3.10;99.60
36322;DHT22;23564;48.290;11.460;2023-12-22T04:08:15;3.20;99.90
36322;DHT22;23564;48.290;11.460;2023-12-22T04:10:40;3.40;99.90
36322;DHT22;23564;48.290;11.460;2023-12-22T04:13:06;3.50;99.20
36322;DHT22;23564;48.290;11.460;2023-12-22T04:15:32;3.60;96.70
36322;DHT22;23564;48.290;11.460;2023-12-22T04:17:57;3.50;94.30
36322;DHT22;23564;48.290;11.460;2023-12-22T04:20:23;3.40;92.40
36322;DHT22;23564;48.290;11.460;2023-12-22T04:22:49;3.50;92.10
36322;DHT22;23564;48.290;11.460;2023-12-22T04:25:14;3.50;92.70
36322;DHT22;23564;48.290;11.460;2023-12-22T04:27:40;3.60;93.10
36322;DHT22;23564;48.290;11.460;2023-12-22T04:30:06;3.60;94.00
36322;DHT22;23564;48.290;11.460;2023-12-22T04:32:32;3.60;95.20
36322;DHT22;23564;48.290;11.460;2023-12-22T04:34:57;3.60;95.30
36322;DHT22;23564;48.290;11.460;2023-12-22T04:37:23;3.70;96.40
36322;DHT22;23564;48.290;11.460;2023-12-22T04:39:49;3.80;97.00
36322;DHT22;23564;48.290;11.460;2023-12-22T04:42:15;4.00;96.30
36322;DHT22;23564;48.290;11.460;2023-12-22T04:44:40;4.10;94.70
36322;DHT22;23564;48.290;11.460;2023-12-22T04:47:07;4.20;93.30
36322;DHT22;23564;48.290;11.460;2023-12-22T04:49:32;4.30;91.90
36322;DHT22;23564;48.290;11.460;2023-12-22T04:51:58;4.30;91.30
36322;DHT22;23564;48.290;11.460;2023-12-22T04:54:23;4.40;89.00
36322;DHT22;23564;48.290;11.460;2023-12-22T04:56:49;4.50;82.90
36322;DHT22;23564;48.290;11.460;2023-12-22T04:59:14;4.60;76.20
36322;DHT22;23564;48.290;11.460;2023-12-22T05:01:40;4.70;74.10
36322;DHT22;23564;48.290;11.460;2023-12-22T05:04:07;4.70;71.20
36322;DHT22;23564;48.290;11.460;2023-12-22T05:06:34;4.70;70.80
36322;DHT22;23564;48.290;11.460;2023-12-22T05:09:00;4.70;67.80
36322;DHT22;23564;48.290;11.460;2023-12-22T05:11:25;4.80;66.00
36322;DHT22;23564;48.290;11.460;2023-12-22T05:13:51;4.80;58.20
36322;DHT22;23564;48.290;11.460;2023-12-22T05:16:17;4.90;52.70
36322;DHT22;23564;48.290;11.460;2023-12-22T05:18:42;4.90;50.50
36322;DHT22;23564;48.290;11.460;2023-12-22T05:21:08;5.00;44.70
36322;DHT22;23564;48.290;11.460;2023-12-22T05:23:36;5.00;46.30
36322;DHT22;23564;48.290;11.460;2023-12-22T05:26:02;5.00;39.00
36322;DHT22;23564;48.290;11.460;2023-12-22T05:28:28;5.00;34.40
36322;DHT22;23564;48.290;11.460;2023-12-22T05:30:54;5.10;34.20
36322;DHT22;23564;48.290;11.460;2023-12-22T05:33:20;5.10;29.70
36322;DHT22;23564;48.290;11.460;2023-12-22T05:35:45;5.10;32.00
36322;DHT22;23564;48.290;11.460;2023-12-22T05:38:11;5.10;34.70
36322;DHT22;23564;48.290;11.460;2023-12-22T05:40:36;5.10;39.30
36322;DHT22;23564;48.290;11.460;2023-12-22T05:43:02;5.00;27.10
36322;DHT22;23564;48.290;11.460;2023-12-22T05:45:27;4.40;39.30
36322;DHT22;23564;48.290;11.460;2023-12-22T05:47:54;4.20;52.90
36322;DHT22;23564;48.290;11.460;2023-12-22T05:50:19;3.90;70.00
36322;DHT22;23564;48.290;11.460;2023-12-22T05:52:45;3.80;82.30
36322;DHT22;23564;48.290;11.460;2023-12-22T05:55:11;3.60;88.10
36322;DHT22;23564;48.290;11.460;2023-12-22T05:57:36;3.60;92.00
36322;DHT22;23564;48.290;11.460;2023-12-22T06:00:05;3.50;94.10
36322;DHT22;23564;48.290;11.460;2023-12-22T06:02:33;3.60;97.10
36322;DHT22;23564;48.290;11.460;2023-12-22T06:04:58;3.80;97.20
36322;DHT22;23564;48.290;11.460;2023-12-22T06:07:24;3.90;97.40
36322;DHT22;23564;48.290;11.460;2023-12-22T06:09:50;4.00;97.90
36322;DHT22;23564;48.290;11.460;2023-12-22T06:12:15;4.00;95.30
36322;DHT22;23564;48.290;11.460;2023-12-22T06:14:41;4.00;96.00
36322;DHT22;23564;48.290;11.460;2023-12-22T06:17:07;4.10;93.90
36322;DHT22;23564;48.290;11.460;2023-12-22T06:19:32;4.00;93.80
36322;DHT22;23564;48.290;11.460;2023-12-22T06:21:58;4.00;94.20
36322;DHT22;23564;48.290;11.460;2023-12-22T06:24:25;4.00;93.80
36322;DHT22;23564;48.290;11.460;2023-12-22T06:26:51;4.00;93.60
36322;DHT22;23564;48.290;11.460;2023-12-22T06:29:17;4.00;94.20
36322;DHT22;23564;48.290;11.460;2023-12-22T06:31:42;4.00;95.70
36322;DHT22;23564;48.290;11.460;2023-12-22T06:34:08;3.90;96.10
36322;DHT22;23564;48.290;11.460;2023-12-22T06:36:33;4.00;96.10
36322;DHT22;23564;48.290;11.460;2023-12-22T06:38:59;4.00;97.40
36322;DHT22;23564;48.290;11.460;2023-12-22T06:41:26;4.00;98.30
36322;DHT22;23564;48.290;11.460;2023-12-22T06:43:52;4.00;98.40
36322;DHT22;23564;48.290;11.460;2023-12-22T06:46:20;4.00;98.70
36322;DHT22;23564;48.290;11.460;2023-12-22T06:48:46;4.00;98.80
36322;DHT22;23564;48.290;11.460;2023-12-22T06:51:28;4.10;99.20
36322;DHT22;23564;48.290;11.460;2023-12-22T06:53:55;4.10;99.00
36322;DHT22;23564;48.290;11.460;2023-12-22T06:56:26;4.10;99.10
36322;DHT22;23564;48.290;11.460;2023-12-22T06:58:53;4.20;99.40
36322;DHT22;23564;48.290;11.460;2023-12-22T07:03:49;4.20;99.10
36322;DHT22;23564;48.290;11.460;2023-12-22T07:06:19;4.30;98.20
36322;DHT22;23564;48.290;11.460;2023-12-22T07:08:46;4.30;96.40
36322;DHT22;23564;48.290;11.460;2023-12-22T07:11:23;4.50;92.10
36322;DHT22;23564;48.290;11.460;2023-12-22T07:13:49;4.60;78.80
36322;DHT22;23564;48.290;11.460;2023-12-22T07:16:15;4.70;61.90
36322;DHT22;23564;48.290;11.460;2023-12-22T07:18:41;4.80;55.60
36322;DHT22;23564;48.290;11.460;2023-12-22T07:21:06;4.70;59.20
36322;DHT22;23564;48.290;11.460;2023-12-22T07:23:32;4.70;70.10
36322;DHT22;23564;48.290;11.460;2023-12-22T07:25:58;4.50;64.10
36322;DHT22;23564;48.290;11.460;2023-12-22T07:28:23;4.40;61.20
36322;DHT22;23564;48.290;11.460;2023-12-22T07:30:49;4.20;65.70
36322;DHT22;23564;48.290;11.460;2023-12-22T07:33:15;3.90;77.20
36322;DHT22;23564;48.290;11.460;2023-12-22T07:35:40;3.70;84.00
36322;DHT22;23564;48.290;11.460;2023-12-22T07:38:06;3.60;91.30
36322;DHT22;23564;48.290;11.460;2023-12-22T07:40:31;3.50;91.90
36322;DHT22;23564;48.290;11.460;2023-12-22T07:42:57;3.40;93.10
36322;DHT22;23564;48.290;11.460;2023-12-22T07:45:24;3.30;93.80
36322;DHT22;23564;48.290;11.460;2023-12-22T07:47:49;3.20;95.50
36322;DHT22;23564;48.290;11.460;2023-12-22T07:50:15;3.10;95.50
36322;DHT22;23564;48.290;11.460;2023-12-22T07:52:40;3.10;96.20
36322;DHT22;23564;48.290;11.460;2023-12-22T07:55:07;3.00;96.60
36322;DHT22;23564;48.290;11.460;2023-12-22T07:57:35;2.80;95.20
36322;DHT22;23564;48.290;11.460;2023-12-22T08:00:00;2.70;95.90
36322;DHT22;23564;48.290;11.460;2023-12-22T08:02:26;2.60;97.40
36322;DHT22;23564;48.290;11.460;2023-12-22T08:04:51;2.70;99.50
36322;DHT22;23564;48.290;11.460;2023-12-22T08:07:17;2.70;99.90
36322;DHT22;23564;48.290;11.460;2023-12-22T08:09:43;2.80;99.90
36322;DHT22;23564;48.290;11.460;2023-12-22T08:12:08;2.90;99.90
36322;DHT22;23564;48.290;11.460;2023-12-22T08:14:34;3.00;99.90
36322;DHT22;23564;48.290;11.460;2023-12-22T08:16:59;3.00;99.90
36322;DHT22;23564;48.290;11.460;2023-12-22T08:19:25;3.10;99.90
36322;DHT22;23564;48.290;11.460;2023-12-22T08:21:52;3.20;99.90
36322;DHT22;23564;48.290;11.460;2023-12-22T08:24:20;3.30;99.90
36322;DHT22;23564;48.290;11.460;2023-12-22T08:26:45;3.30;99.90
36322;DHT22;23564;48.290;11.460;2023-12-22T08:29:11;3.30;99.90
36322;DHT22;23564;48.290;11.460;2023-12-22T08:31:36;3.40;99.90
36322;DHT22;23564;48.290;11.460;2023-12-22T08:34:02;3.40;99.90
36322;DHT22;23564;48.290;11.460;2023-12-22T08:36:27;3.50;99.90
36322;DHT22;23564;48.290;11.460;2023-12-22T08:38:53;3.50;99.90
36322;DHT22;23564;48.290;11.460;2023-12-22T08:41:19;3.60;99.90
36322;DHT22;23564;48.290;11.460;2023-12-22T08:43:44;3.70;99.90
36322;DHT22;23564;48.290;11.460;2023-12-22T08:46:10;3.80;99.90
36322;DHT22;23564;48.290;11.460;2023-12-22T08:48:37;3.80;99.90
36322;DHT22;23564;48.290;11.460;2023-12-22T08:51:03;3.90;99.90
36322;DHT22;23564;48.290;11.460;2023-12-22T08:53:29;4.10;99.90
36322;DHT22;23564;48.290;11.460;2023-12-22T08:55:59;4.10;99.90
36322;DHT22;23564;48.290;11.460;2023-12-22T08:58:25;4.20;99.90
36322;DHT22;23564;48.290;11.460;2023-12-22T09:00:51;4.30;99.90
36322;DHT22;23564;48.290;11.460;2023-12-22T09:03:16;4.40;99.90
36322;DHT22;23564;48.290;11.460;2023-12-22T09:05:42;4.50;99.90
36322;DHT22;23564;48.290;11.460;2023-12-22T09:08:08;4.70;99.60
36322;DHT22;23564;48.290;11.460;2023-12-22T09:10:33;4.80;98.70
36322;DHT22;23564;48.290;11.460;2023-12-22T09:12:59;4.90;95.30
36322;DHT22;23564;48.290;11.460;2023-12-22T09:15:25;5.00;92.90
36322;DHT22;23564;48.290;11.460;2023-12-22T09:17:52;5.10;91.40
36322;DHT22;23564;48.290;11.460;2023-12-22T09:20:18;5.20;90.80
36322;DHT22;23564;48.290;11.460;2023-12-22T09:22:44;5.30;91.20
36322;DHT22;23564;48.290;11.460;2023-12-22T09:25:09;5.30;84.20
36322;DHT22;23564;48.290;11.460;2023-12-22T09:27:35;5.40;81.00
36322;DHT22;23564;48.290;11.460;2023-12-22T09:30:00;5.40;84.60
36322;DHT22;23564;48.290;11.460;2023-12-22T09:32:26;5.40;83.90
36322;DHT22;23564;48.290;11.460;2023-12-22T09:34:52;5.30;80.70
36322;DHT22;23564;48.290;11.460;2023-12-22T09:37:17;5.30;79.90
36322;DHT22;23564;48.290;11.460;2023-12-22T09:39:43;5.30;81.90
36322;DHT22;23564;48.290;11.460;2023-12-22T09:42:09;5.30;83.80
36322;DHT22;23564;48.290;11.460;2023-12-22T09:44:36;5.40;86.90
36322;DHT22;23564;48.290;11.460;2023-12-22T09:47:04;5.40;80.30
36322;DHT22;23564;48.290;11.460;2023-12-22T09:49:30;5.40;83.00
36322;DHT22;23564;48.290;11.460;2023-12-22T09:51:57;5.50;82.00
36322;DHT22;23564;48.290;11.460;2023-12-22T09:54:23;5.50;78.00
36322;DHT22;23564;48.290;11.460;2023-12-22T09:56:51;5.40;75.40
36322;DHT22;23564;48.290;11.460;2023-12-22T09:59:17;5.40;73.00
36322;DHT22;23564;48.290;11.460;2023-12-22T10:01:44;5.40;68.30
36322;DHT22;23564;48.290;11.460;2023-12-22T10:04:13;5.30;72.90
36322;DHT22;23564;48.290;11.460;2023-12-22T10:06:40;5.30;78.70
36322;DHT22;23564;48.290;11.460;2023-12-22T10:09:06;5.20;82.30
36322;DHT22;23564;48.290;11.460;2023-12-22T10:11:35;5.20;83.80
36322;DHT22;23564;48.290;11.460;2023-12-22T10:14:02;5.00;81.30
36322;DHT22;23564;48.290;11.460;2023-12-22T10:16:28;4.90;90.90
36322;DHT22;23564;48.290;11.460;2023-12-22T10:18:55;4.90;91.80
36322;DHT22;23564;48.290;11.460;2023-12-22T10:21:20;4.70;92.90
36322;DHT22;23564;48.290;11.460;2023-12-22T10:23:46;4.60;93.80
36322;DHT22;23564;48.290;11.460;2023-12-22T10:26:12;4.50;91.40
36322;DHT22;23564;48.290;11.460;2023-12-22T10:28:37;4.40;93.60
36322;DHT22;23564;48.290;11.460;2023-12-22T10:31:03;4.40;96.90
36322;DHT22;23564;48.290;11.460;2023-12-22T10:33:32;4.40;98.80
36322;DHT22;23564;48.290;11.460;2023-12-22T10:35:59;4.40;99.30
36322;DHT22;23564;48.290;11.460;2023-12-22T10:38:25;4.40;98.40
36322;DHT22;23564;48.290;11.460;2023-12-22T10:40:51;4.40;98.00
36322;DHT22;23564;48.290;11.460;2023-12-22T10:43:16;4.40;98.00
36322;DHT22;23564;48.290;11.460;2023-12-22T10:45:42;4.30;97.90
36322;DHT22;23564;48.290;11.460;2023-12-22T10:48:07;4.40;99.20
36322;DHT22;23564;48.290;11.460;2023-12-22T10:50:33;4.40;99.90
36322;DHT22;23564;48.290;11.460;2023-12-22T10:52:59;4.40;99.90
36322;DHT22;23564;48.290;11.460;2023-12-22T10:55:26;4.40;99.90
36322;DHT22;23564;48.290;11.460;2023-12-22T10:57:53;4.40;99.90
36322;DHT22;23564;48.290;11.460;2023-12-22T11:00:20;4.40;99.90
36322;DHT22;23564;48.290;11.460;2023-12-22T11:02:49;4.50;99.90
36322;DHT22;23564;48.290;11.460;2023-12-22T11:05:18;4.50;99.90
36322;DHT22;23564;48.290;11.460;2023-12-22T11:07:49;4.60;99.90
36322;DHT22;23564;48.290;11.460;2023-12-22T11:10:21;4.60;99.90
36322;DHT22;23564;48.290;11.460;2023-12-22T11:12:47;4.70;99.90
36322;DHT22;23564;48.290;11.460;2023-12-22T11:15:14;4.70;99.90
36322;DHT22;23564;48.290;11.460;2023-12-22T11:17:42;4.80;99.90
36322;DHT22;23564;48.290;11.460;2023-12-22T11:20:12;4.80;99.90
36322;DHT22;23564;48.290;11.460;2023-12-22T11:22:39;4.90;99.90
36322;DHT22;23564;48.290;11.460;2023-12-22T11:25:06;5.00;99.90
36322;DHT22;23564;48.290;11.460;2023-12-22T11:27:34;5.10;99.90
36322;DHT22;23564;48.290;11.460;2023-12-22T11:30:01;5.20;99.80
36322;DHT22;23564;48.290;11.460;2023-12-22T11:32:29;5.30;98.10
36322;DHT22;23564;48.290;11.460;2023-12-22T11:34:54;5.30;97.90
36322;DHT22;23564;48.290;11.460;2023-12-22T11:37:22;5.40;97.20
36322;DHT22;23564;48.290;11.460;2023-12-22T11:39:48;5.40;96.90
36322;DHT22;23564;48.290;11.460;2023-12-22T11:42:19;5.40;97.60
36322;DHT22;23564;48.290;11.460;2023-12-22T11:44:46;5.40;98.60
36322;DHT22;23564;48.290;11.460;2023-12-22T11:47:14;5.40;98.90
36322;DHT22;23564;48.290;11.460;2023-12-22T11:49:40;5.40;99.60
36322;DHT22;23564;48.290;11.460;2023-12-22T11:52:13;5.40;99.10
36322;DHT22;23564;48.290;11.460;2023-12-22T11:54:50;5.40;97.90
36322;DHT22;23564;48.290;11.460;2023-12-22T12:00:01;5.40;97.40
36322;DHT22;23564;48.290;11.460;2023-12-22T12:02:30;5.40;97.30
36322;DHT22;23564;48.290;11.460;2023-12-22T12:04:57;5.40;97.20
36322;DHT22;23564;48.290;11.460;2023-12-22T12:10:07;5.40;98.40
36322;DHT22;23564;48.290;11.460;2023-12-22T12:12:33;5.40;98.60
36322;DHT22;23564;48.290;11.460;2023-12-22T12:15:07;5.40;98.50
36322;DHT22;23564;48.290;11.460;2023-12-22T12:17:33;5.40;97.70
36322;DHT22;23564;48.290;11.460;2023-12-22T12:19:59;5.40;97.30
36322;DHT22;23564;48.290;11.460;2023-12-22T12:22:25;5.40;97.10
36322;DHT22;23564;48.290;11.460;2023-12-22T12:24:51;5.50;97.40
36322;DHT22;23564;48.290;11.460;2023-12-22T12:27:18;5.50;97.10
36322;DHT22;23564;48.290;11.460;2023-12-22T12:29:44;5.50;97.00
36322;DHT22;23564;48.290;11.460;2023-12-22T12:32:14;5.50;97.20
36322;DHT22;23564;48.290;11.460;2023-12-22T12:34:42;5.50;96.20
36322;DHT22;23564;48.290;11.460;2023-12-22T12:37:08;5.50;96.10
36322;DHT22;23564;48.290;11.460;2023-12-22T12:39:34;5.50;96.70
36322;DHT22;23564;48.290;11.460;2023-12-22T12:42:01;5.50;95.40
36322;DHT22;23564;48.290;11.460;2023-12-22T12:44:30;5.50;95.90
36322;DHT22;23564;48.290;11.460;2023-12-22T12:46:58;5.50;95.90
36322;DHT22;23564;48.290;11.460;2023-12-22T12:49:23;5.50;96.10
36322;DHT22;23564;48.290;11.460;2023-12-22T12:51:53;5.50;95.90
36322;DHT22;23564;48.290;11.460;2023-12-22T12:54:19;5.50;95.60
36322;DHT22;23564;48.290;11.460;2023-12-22T12:56:45;5.60;96.10
36322;DHT22;23564;48.290;11.460;2023-12-22T12:59:15;5.50;95.50
36322;DHT22;23564;48.290;11.460;2023-12-22T13:01:42;5.50;94.00
36322;DHT22;23564;48.290;11.460;2023-12-22T13:04:09;5.60;93.30
36322;DHT22;23564;48.290;11.460;2023-12-22T13:06:34;5.60;93.60
36322;DHT22;23564;48.290;11.460;2023-12-22T13:09:00;5.50;92.90
36322;DHT22;23564;48.290;11.460;2023-12-22T13:11:31;5.50;92.20
36322;DHT22;23564;48.290;11.460;2023-12-22T13:13:57;5.50;93.00
36322;DHT22;23564;48.290;11.460;2023-12-22T13:16:24;5.60;92.80
36322;DHT22;23564;48.290;11.460;2023-12-22T13:18:57;5.60;91.90
36322;DHT22;23564;48.290;11.460;2023-12-22T13:21:23;5.60;91.70
36322;DHT22;23564;48.290;11.460;2023-12-22T13:24:11;5.60;92.10
36322;DHT22;23564;48.290;11.460;2023-12-22T13:26:37;5.50;91.50
36322;DHT22;23564;48.290;11.460;2023-12-22T13:29:04;5.50;93.20
36322;DHT22;23564;48.290;11.460;2023-12-22T13:31:31;5.50;92.20
36322;DHT22;23564;48.290;11.460;2023-12-22T13:33:57;5.50;92.70
36322;DHT22;23564;48.290;11.460;2023-12-22T13:36:23;5.40;93.50
36322;DHT22;23564;48.290;11.460;2023-12-22T13:38:49;5.40;95.30
36322;DHT22;23564;48.290;11.460;2023-12-22T13:41:15;5.40;95.70
36322;DHT22;23564;48.290;11.460;2023-12-22T13:43:41;5.50;97.00
36322;DHT22;23564;48.290;11.460;2023-12-22T13:46:07;5.40;97.80
36322;DHT22;23564;48.290;11.460;2023-12-22T13:48:36;5.40;98.10
36322;DHT22;23564;48.290;11.460;2023-12-22T13:51:01;5.50;98.90
36322;DHT22;23564;48.290;11.460;2023-12-22T13:53:28;5.40;99.40
36322;DHT22;23564;48.290;11.460;2023-12-22T13:55:58;5.50;99.40
36322;DHT22;23564;48.290;11.460;2023-12-22T13:58:24;5.40;99.50
36322;DHT22;23564;48.290;11.460;2023-12-22T14:00:50;5.50;99.40
36322;DHT22;23564;48.290;11.460;2023-12-22T14:03:16;5.50;99.90
36322;DHT22;23564;48.290;11.460;2023-12-22T14:05:45;5.50;99.90
36322;DHT22;23564;48.290;11.460;2023-12-22T14:08:11;5.50;99.90
36322;DHT22;23564;48.290;11.460;2023-12-22T14:10:36;5.60;99.90
36322;DHT22;23564;48.290;11.460;2023-12-22T14:13:02;5.60;99.90
36322;DHT22;23564;48.290;11.460;2023-12-22T14:15:27;5.60;99.90
36322;DHT22;23564;48.290;11.460;2023-12-22T14:17:56;5.70;99.90
36322;DHT22;23564;48.290;11.460;2023-12-22T14:20:22;5.70;99.90
36322;DHT22;23564;48.290;11.460;2023-12-22T14:22:47;5.70;99.90
36322;DHT22;23564;48.290;11.460;2023-12-22T14:25:13;5.70;99.90
36322;DHT22;23564;48.290;11.460;2023-12-22T14:27:38;5.70;99.90
36322;DHT22;23564;48.290;11.460;2023-12-22T14:30:04;5.80;99.90
36322;DHT22;23564;48.290;11.460;2023-12-22T14:32:30;5.80;99.90
36322;DHT22;23564;48.290;11.460;2023-12-22T14:34:56;5.90;99.90
36322;DHT22;23564;48.290;11.460;2023-12-22T14:37:22;5.90;99.60
36322;DHT22;23564;48.290;11.460;2023-12-22T14:39:48;5.90;99.80
36322;DHT22;23564;48.290;11.460;2023-12-22T14:42:13;5.90;99.40
36322;DHT22;23564;48.290;11.460;2023-12-22T14:44:39;6.00;99.30
36322;DHT22;23564;48.290;11.460;2023-12-22T14:47:06;6.00;99.70
36322;DHT22;23564;48.290;11.460;2023-12-22T14:49:31;6.00;99.60
36322;DHT22;23564;48.290;11.460;2023-12-22T14:51:57;6.00;99.80
36322;DHT22;23564;48.290;11.460;2023-12-22T14:54:24;6.10;99.00
36322;DHT22;23564;48.290;11.460;2023-12-22T14:56:50;6.10;99.30
36322;DHT22;23564;48.290;11.460;2023-12-22T14:59:16;6.10;99.30
36322;DHT22;23564;48.290;11.460;2023-12-22T15:01:42;6.10;99.30
36322;DHT22;23564;48.290;11.460;2023-12-22T15:04:08;6.10;99.30
36322;DHT22;23564;48.290;11.460;2023-12-22T15:06:41;6.10;98.60
36322;DHT22;23564;48.290;11.460;2023-12-22T15:09:09;6.20;98.90
36322;DHT22;23564;48.290;11.460;2023-12-22T15:11:48;6.20;98.70
36322;DHT22;23564;48.290;11.460;2023-12-22T15:14:16;6.20;99.30
36322;DHT22;23564;48.290;11.460;2023-12-22T15:16:42;6.20;99.20
36322;DHT22;23564;48.290;11.460;2023-12-22T15:19:11;6.20;99.20
36322;DHT22;23564;48.290;11.460;2023-12-22T15:21:38;6.20;99.80
36322;DHT22;23564;48.290;11.460;2023-12-22T15:24:05;6.20;99.90
36322;DHT22;23564;48.290;11.460;2023-12-22T15:26:30;6.20;99.90
36322;DHT22;23564;48.290;11.460;2023-12-22T15:28:56;6.20;99.90
36322;DHT22;23564;48.290;11.460;2023-12-22T15:31:21;6.20;99.90
36322;DHT22;23564;48.290;11.460;2023-12-22T15:33:47;6.20;99.90